Time;durP1;ratioP1;P1;durP2;ratioP2;P2;SDS_P1;SDS_P2;PMS_P1;PMS_P2;Temp;Humidity;BMP_temperature;BMP_pressure;BME280_temperature;BME280_humidity;BME280_pressure;Samples;Min_cycle;Max_cycle;Signal;HPM_P1;HPM_P2
2024/03/22 00:02:10;;;;;;;10.77;7.00;;;10.60;69.30;;;12.53;51.42;98315.13;4970467;28;20054;-53
2024/03/22 00:04:37;;;;;;;9.27;6.37;;;10.60;70.30;;;12.53;51.33;98318.63;4970971;28;20047;-52
2024/03/22 00:07:04;;;;;;;10.43;7.20;;;10.60;70.30;;;12.49;51.22;98317.25;4970067;28;20034;-50
2024/03/22 00:09:31;;;;;;;9.37;7.37;;;10.50;70.10;;;12.42;51.57;98313.53;4947227;28;20083;-52
2024/03/22 00:11:58;;;;;;;11.47;7.03;;;10.40;70.30;;;12.35;51.42;98305.31;4970520;28;20039;-53
2024/03/22 00:14:25;;;;;;;9.73;6.80;;;10.30;70.40;;;12.31;51.76;98305.78;4974372;28;20046;-53
2024/03/22 00:16:51;;;;;;;12.03;8.67;;;10.20;70.90;;;12.25;51.72;98303.72;4974754;28;20055;-50
2024/03/22 00:19:18;;;;;;;11.47;8.30;;;10.10;71.30;;;12.19;51.76;98302.53;4974774;28;20051;-52
2024/03/22 00:21:44;;;;;;;9.40;7.30;;;10.10;71.80;;;12.16;52.10;98297.50;4974420;28;20382;-52
2024/03/22 00:24:11;;;;;;;11.17;7.13;;;10.20;72.00;;;12.16;52.08;98290.34;4974647;28;20604;-52
2024/03/22 00:26:39;;;;;;;10.33;6.90;;;10.20;71.70;;;12.13;51.93;98295.97;4958624;28;20050;-53
2024/03/22 00:29:05;;;;;;;12.33;7.03;;;10.20;71.30;;;12.11;51.74;98297.97;4974761;28;20043;-53
2024/03/22 00:31:32;;;;;;;10.93;6.93;;;10.10;71.00;;;12.08;51.83;98300.09;4973993;28;20039;-53
2024/03/22 00:33:59;;;;;;;10.57;7.73;;;10.10;71.20;;;12.07;51.82;98298.44;4974423;28;20418;-56
2024/03/22 00:36:25;;;;;;;11.93;8.17;;;10.10;71.20;;;12.02;52.06;98293.56;4974176;28;20423;-53
2024/03/22 00:38:52;;;;;;;12.00;7.30;;;10.00;71.00;;;11.97;51.81;98287.84;4974227;28;20062;-53
2024/03/22 00:41:18;;;;;;;13.97;7.60;;;9.90;71.60;;;11.92;51.90;98283.00;4973517;28;20043;-52
2024/03/22 00:43:45;;;;;;;10.80;7.50;;;9.80;71.80;;;11.84;52.09;98280.19;4974112;28;20046;-53
2024/03/22 00:46:12;;;;;;;11.17;7.43;;;9.70;72.50;;;11.78;52.48;98273.63;4973943;28;20501;-51
2024/03/22 00:48:38;;;;;;;13.90;7.93;;;9.70;72.90;;;11.75;52.35;98271.28;4974044;28;20415;-52
2024/03/22 00:51:05;;;;;;;13.27;7.47;;;9.60;72.70;;;11.69;52.55;98271.91;4973641;28;20042;-54
2024/03/22 00:53:32;;;;;;;11.57;7.60;;;9.60;73.80;;;11.65;53.08;98269.69;4966120;28;20046;-52
2024/03/22 00:55:59;;;;;;;16.60;9.23;;;9.50;74.10;;;11.60;53.16;98263.00;4973947;28;20070;-53
2024/03/22 00:58:27;;;;;;;12.73;7.90;;;9.50;74.00;;;11.55;52.84;98262.59;4973755;28;20046;-53
2024/03/22 01:00:55;;;;;;;13.10;7.63;;;9.40;74.10;;;11.49;53.18;98259.72;4973436;28;20051;-52
2024/03/22 01:03:22;;;;;;;15.27;8.93;;;9.40;74.80;;;11.47;53.46;98259.84;4971605;28;20055;-51
2024/03/22 01:05:49;;;;;;;11.97;7.87;;;9.40;74.80;;;11.50;53.46;98253.41;4972906;28;20047;-52
2024/03/22 01:08:15;;;;;;;11.00;7.70;;;9.50;74.60;;;11.48;53.38;98242.88;4973551;28;20514;-53
2024/03/22 01:10:42;;;;;;;11.27;8.10;;;9.50;74.50;;;11.48;53.50;98236.72;4973374;28;20047;-52
2024/03/22 01:13:09;;;;;;;10.77;7.03;;;9.50;74.40;;;11.46;53.32;98239.53;4973467;28;20418;-52
2024/03/22 01:15:36;;;;;;;13.30;7.83;;;9.50;74.70;;;11.45;53.09;98237.00;4973650;28;20054;-53
2024/03/22 01:18:03;;;;;;;14.73;9.20;;;9.40;74.30;;;11.41;53.64;98231.16;4973465;28;20061;-52
2024/03/22 01:20:29;;;;;;;10.73;7.97;;;9.40;74.30;;;11.39;53.57;98233.13;4973346;28;20498;-50
2024/03/22 01:22:56;;;;;;;10.63;7.93;;;9.40;74.30;;;11.38;53.21;98228.78;4973075;28;20090;-51
2024/03/22 01:25:23;;;;;;;11.93;8.17;;;9.30;74.30;;;11.33;53.44;98237.22;4972360;28;20042;-53
2024/03/22 01:27:49;;;;;;;13.53;8.23;;;9.30;74.70;;;11.31;53.55;98227.72;4973263;28;20050;-53
2024/03/22 01:30:16;;;;;;;11.33;7.73;;;9.30;74.80;;;11.27;53.33;98227.19;4957245;28;20367;-53
2024/03/22 01:32:43;;;;;;;10.50;6.97;;;9.20;74.50;;;11.22;53.75;98222.31;4956605;28;20057;-51
2024/03/22 01:35:09;;;;;;;13.60;8.27;;;9.10;74.70;;;11.19;53.71;98229.78;4956855;28;20040;-52
2024/03/22 01:37:36;;;;;;;12.50;7.37;;;9.10;74.80;;;11.14;53.60;98224.88;4973244;28;20051;-52
2024/03/22 01:40:04;;;;;;;11.50;9.07;;;9.00;75.50;;;11.12;53.80;98226.03;4972979;28;20047;-52
2024/03/22 01:42:31;;;;;;;12.07;7.20;;;9.00;75.20;;;11.10;53.42;98215.50;4972638;28;20039;-54
2024/03/22 01:44:58;;;;;;;10.87;7.77;;;9.00;75.20;;;11.09;53.77;98218.31;4973150;28;20054;-55
2024/03/22 01:47:25;;;;;;;10.67;8.03;;;8.90;75.30;;;11.06;53.62;98215.97;4956903;28;20043;-50
2024/03/22 01:49:54;;;;;;;12.67;8.10;;;8.90;75.70;;;11.09;53.62;98213.00;4972978;28;20525;-51
2024/03/22 01:52:21;;;;;;;14.37;8.83;;;9.10;75.50;;;11.12;54.16;98210.03;4940315;28;20054;-52
2024/03/22 01:54:49;;;;;;;15.13;9.67;;;9.20;75.00;;;11.22;53.89;98206.31;4957046;28;20054;-53
2024/03/22 01:57:16;;;;;;;12.53;8.43;;;9.50;73.80;;;11.34;53.99;98209.59;4956568;28;20051;-52
2024/03/22 01:59:43;;;;;;;14.57;9.40;;;9.70;73.00;;;11.40;53.76;98201.00;4972859;28;20047;-53
2024/03/22 02:02:11;;;;;;;15.93;8.80;;;9.80;72.20;;;11.48;53.73;98199.41;4972341;28;20418;-53
2024/03/22 02:04:37;;;;;;;12.53;8.37;;;9.90;72.80;;;11.53;53.44;98194.41;4956784;28;20054;-55
2024/03/22 02:07:04;;;;;;;11.50;7.73;;;9.90;71.10;;;11.55;53.05;98184.44;4972515;28;20414;-50
2024/03/22 02:09:31;;;;;;;17.53;9.13;;;9.90;70.80;;;11.59;53.03;98177.78;4971973;28;20035;-50
2024/03/22 02:11:58;;;;;;;14.53;7.90;;;9.90;70.90;;;11.62;52.86;98180.16;4972268;28;20422;-49
2024/03/22 02:14:25;;;;;;;14.37;8.70;;;9.90;70.60;;;11.69;52.97;98181.22;4972366;28;20058;-50
2024/03/22 02:16:52;;;;;;;15.53;7.97;;;10.00;70.30;;;11.74;52.58;98180.75;4972445;28;20425;-48
2024/03/22 02:19:18;;;;;;;13.07;8.60;;;10.10;69.90;;;11.74;52.91;98180.75;4972205;28;20047;-48
2024/03/22 02:21:45;;;;;;;14.10;8.73;;;10.10;70.70;;;11.75;52.50;98175.28;4971992;28;20046;-52
2024/03/22 02:24:12;;;;;;;13.60;7.97;;;10.10;69.70;;;11.78;52.53;98174.13;4972205;28;20045;-51
2024/03/22 02:26:38;;;;;;;12.40;8.57;;;10.10;69.50;;;11.77;52.35;98175.13;4972327;28;20042;-52
2024/03/22 02:29:05;;;;;;;13.23;8.37;;;10.00;69.50;;;11.79;52.21;98170.47;4955516;28;20053;-49
2024/03/22 02:31:32;;;;;;;15.73;9.73;;;10.00;69.80;;;11.82;52.28;98171.00;4971704;28;20433;-50
2024/03/22 02:33:59;;;;;;;13.03;9.40;;;10.10;69.90;;;11.86;52.62;98166.16;4972310;28;20054;-53
2024/03/22 02:36:26;;;;;;;12.73;7.93;;;10.20;69.70;;;11.91;52.77;98163.91;4971840;28;20042;-54
2024/03/22 02:38:53;;;;;;;18.10;8.77;;;10.30;69.70;;;11.97;52.67;98157.94;4972041;28;20042;-52
2024/03/22 02:41:21;;;;;;;14.03;9.93;;;10.40;69.60;;;12.01;52.83;98145.94;4971319;28;20043;-53
2024/03/22 02:43:48;;;;;;;13.20;8.43;;;10.50;69.60;;;12.09;52.46;98155.81;4972009;28;20047;-51
2024/03/22 02:46:15;;;;;;;13.87;8.93;;;10.50;69.60;;;12.14;52.80;98145.53;4955807;28;20050;-53
2024/03/22 02:48:41;;;;;;;14.60;8.63;;;10.60;69.40;;;12.20;52.61;98154.72;4971798;28;20046;-52
2024/03/22 02:51:08;;;;;;;14.17;8.60;;;10.70;69.70;;;12.25;52.62;98149.72;4971645;28;20047;-53
2024/03/22 02:53:34;;;;;;;13.00;8.40;;;10.70;69.70;;;12.30;52.84;98152.78;4955657;28;20042;-52
2024/03/22 02:56:01;;;;;;;12.13;8.20;;;10.80;69.30;;;12.31;52.89;98138.44;4971754;28;20057;-53
2024/03/22 02:58:28;;;;;;;15.07;9.13;;;10.90;69.30;;;12.32;52.80;98149.94;4971764;28;20054;-50
2024/03/22 03:00:54;;;;;;;11.13;7.67;;;11.00;69.00;;;12.34;52.81;98142.63;4971332;28;20055;-53
2024/03/22 03:03:21;;;;;;;11.47;7.17;;;10.90;69.10;;;12.39;52.82;98145.66;4971556;28;20130;-53
2024/03/22 03:05:48;;;;;;;12.73;7.37;;;11.00;68.50;;;12.38;52.79;98136.78;4971612;28;20061;-53
2024/03/22 03:08:14;;;;;;;11.63;7.43;;;11.00;68.80;;;12.39;52.73;98141.13;4970718;28;20043;-51
2024/03/22 03:10:41;;;;;;;10.77;7.20;;;11.10;68.70;;;12.41;52.65;98138.31;4971142;28;20043;-54
2024/03/22 03:13:08;;;;;;;9.10;6.57;;;11.10;68.50;;;12.46;52.77;98135.16;4971482;28;20403;-54
2024/03/22 03:15:34;;;;;;;9.80;7.40;;;11.10;68.50;;;12.45;52.60;98128.97;4971338;28;20039;-53
2024/03/22 03:18:01;;;;;;;9.43;6.87;;;11.20;68.20;;;12.46;52.87;98124.47;4971475;28;20039;-54
2024/03/22 03:20:28;;;;;;;9.90;6.97;;;11.10;68.30;;;12.46;52.70;98127.13;4971473;28;20042;-54
2024/03/22 03:22:55;;;;;;;8.03;6.50;;;11.10;68.10;;;12.46;53.04;98135.97;4971053;28;20271;-54
2024/03/22 03:25:22;;;;;;;8.47;6.10;;;11.10;68.30;;;12.49;52.62;98132.16;4971227;28;20429;-52
2024/03/22 03:27:48;;;;;;;9.87;6.73;;;11.20;68.20;;;12.51;52.56;98132.84;4971268;28;20027;-51
2024/03/22 03:30:15;;;;;;;8.77;6.60;;;11.20;68.20;;;12.53;52.45;98137.00;4955191;28;20034;-50
2024/03/22 03:32:41;;;;;;;11.13;7.23;;;11.10;68.30;;;12.53;52.70;98145.03;4970838;28;20042;-50
2024/03/22 03:35:08;;;;;;;11.13;6.53;;;11.10;68.40;;;12.50;52.59;98131.16;4955114;28;20039;-49
2024/03/22 03:37:35;;;;;;;12.40;6.07;;;11.10;68.20;;;12.46;52.43;98135.97;4971008;28;20038;-52
2024/03/22 03:40:02;;;;;;;8.53;6.10;;;11.10;68.30;;;12.40;52.58;98129.44;4971008;28;20426;-53
2024/03/22 03:42:28;;;;;;;9.63;6.33;;;11.00;68.40;;;12.38;52.55;98128.78;4970603;28;20051;-55
2024/03/22 03:44:55;;;;;;;9.77;6.40;;;11.00;68.50;;;12.35;52.73;98130.94;4954801;28;20043;-53
2024/03/22 03:47:22;;;;;;;9.33;6.03;;;11.00;68.60;;;12.32;52.79;98126.75;4954397;28;20042;-55
2024/03/22 03:49:48;;;;;;;9.97;6.37;;;11.00;68.80;;;12.32;52.57;98121.41;4970958;28;20035;-53
2024/03/22 03:52:15;;;;;;;9.07;6.10;;;10.90;68.80;;;12.31;52.61;98118.91;4970499;28;20038;-50
2024/03/22 03:54:42;;;;;;;7.27;5.90;;;10.90;68.90;;;12.29;52.51;98116.41;4971049;28;20410;-56
2024/03/22 03:57:08;;;;;;;8.47;6.27;;;10.90;68.60;;;12.29;52.57;98112.88;4970974;28;20043;-53
2024/03/22 03:59:35;;;;;;;7.47;6.40;;;11.00;68.50;;;12.31;52.61;98105.53;4970792;28;20509;-53
2024/03/22 04:02:02;;;;;;;8.73;5.80;;;11.00;68.50;;;12.32;52.68;98115.25;4970552;28;20042;-52
2024/03/22 04:04:29;;;;;;;9.50;6.17;;;11.00;69.20;;;12.33;52.63;98112.41;4967781;28;20046;-52
2024/03/22 04:06:55;;;;;;;6.93;5.03;;;11.00;68.10;;;12.34;52.40;98114.06;4970350;28;20045;-54
2024/03/22 04:09:22;;;;;;;7.03;4.87;;;11.00;67.90;;;12.36;52.39;98112.06;4970876;28;20421;-53
2024/03/22 04:11:48;;;;;;;8.53;5.60;;;11.00;67.90;;;12.39;52.47;98110.94;4970639;28;20083;-52
2024/03/22 04:14:15;;;;;;;7.27;5.80;;;11.00;67.60;;;12.40;52.41;98110.75;4970910;28;20062;-52
2024/03/22 04:16:42;;;;;;;9.53;5.60;;;11.10;67.70;;;12.41;52.02;98104.44;4963016;28;20046;-54
2024/03/22 04:19:08;;;;;;;6.40;4.63;;;11.10;67.40;;;12.45;52.20;98104.94;4970911;28;20046;-51
2024/03/22 04:21:35;;;;;;;7.83;5.27;;;11.10;67.00;;;12.47;51.87;98096.78;4970397;28;20367;-50
2024/03/22 04:24:02;;;;;;;5.90;4.20;;;11.10;66.80;;;12.53;51.94;98104.13;4970879;28;20046;-54
2024/03/22 04:26:28;;;;;;;7.07;4.97;;;11.10;66.70;;;12.55;51.88;98110.97;4970835;28;20038;-52
2024/03/22 04:28:55;;;;;;;6.87;5.10;;;11.10;66.70;;;12.57;51.57;98108.97;4954772;28;20042;-54
2024/03/22 04:31:22;;;;;;;6.50;5.03;;;11.10;66.50;;;12.60;51.55;98105.13;4970309;28;20046;-55
2024/03/22 04:33:48;;;;;;;6.13;4.80;;;11.10;66.40;;;12.63;51.19;98110.16;4970667;28;20499;-54
2024/03/22 04:36:15;;;;;;;6.27;4.97;;;11.10;66.20;;;12.65;51.17;98108.16;4970748;28;20494;-54
2024/03/22 04:38:42;;;;;;;6.87;5.50;;;11.10;66.00;;;12.64;50.98;98113.66;4954542;28;20050;-55
2024/03/22 04:41:09;;;;;;;5.87;4.67;;;11.20;65.80;;;12.64;50.95;98124.34;4970162;28;20046;-52
2024/03/22 04:43:35;;;;;;;6.33;4.93;;;11.20;65.40;;;12.62;50.87;98119.19;4970547;28;20418;-53
2024/03/22 04:46:02;;;;;;;7.00;4.83;;;11.10;65.70;;;12.65;51.07;98124.19;4970778;28;20047;-54
2024/03/22 04:48:29;;;;;;;5.93;5.03;;;11.10;66.40;;;12.68;51.24;98129.22;4970153;28;20051;-54
2024/03/22 04:50:56;;;;;;;6.73;5.13;;;11.10;66.40;;;12.69;51.02;98130.88;4970245;28;20034;-52
2024/03/22 04:53:22;;;;;;;6.17;4.43;;;11.00;66.70;;;12.66;50.98;98128.56;4970425;28;20082;-55
2024/03/22 04:55:50;;;;;;;7.33;5.07;;;10.90;67.10;;;12.68;51.08;98128.38;4970563;28;20047;-54
2024/03/22 04:58:21;;;;;;;6.87;4.93;;;10.90;67.80;;;12.69;51.27;98124.72;4970481;28;20049;-54
2024/03/22 05:00:49;;;;;;;6.20;5.23;;;10.90;68.20;;;12.68;51.40;98123.88;4964939;28;20206;-55
2024/03/22 05:03:16;;;;;;;7.27;4.80;;;10.90;68.30;;;12.66;51.26;98120.53;4974321;28;20039;-54
2024/03/22 05:05:43;;;;;;;6.30;4.67;;;10.80;68.30;;;12.59;51.58;98119.50;4973896;28;20035;-55
2024/03/22 05:08:10;;;;;;;6.37;5.00;;;10.70;68.90;;;12.55;51.84;98121.66;4973280;28;20046;-55
2024/03/22 05:10:36;;;;;;;7.77;5.30;;;10.60;69.30;;;12.54;51.70;98114.66;4957882;28;20052;-52
2024/03/22 05:13:03;;;;;;;11.20;7.20;;;10.70;69.10;;;12.55;51.56;98119.00;4973421;28;20066;-54
2024/03/22 05:15:30;;;;;;;15.83;10.27;;;10.80;69.40;;;12.55;51.67;98113.66;4973717;28;20042;-54
2024/03/22 05:17:58;;;;;;;14.53;9.50;;;10.80;69.40;;;12.53;51.82;98114.81;4973782;28;20069;-56
2024/03/22 05:20:25;;;;;;;14.27;10.07;;;10.80;69.30;;;12.51;51.58;98114.16;4972654;28;20046;-52
2024/03/22 05:22:52;;;;;;;11.50;9.43;;;10.80;69.30;;;12.47;51.98;98108.28;4973296;28;20050;-53
2024/03/22 05:25:19;;;;;;;9.00;6.60;;;10.70;69.50;;;12.44;51.68;98113.94;4973623;28;20039;-49
2024/03/22 05:27:46;;;;;;;6.97;5.17;;;10.70;69.30;;;12.40;51.86;98107.25;4973546;28;20034;-53
2024/03/22 05:30:13;;;;;;;6.93;5.20;;;10.50;69.30;;;12.38;51.90;98098.56;4973504;28;20544;-53
2024/03/22 05:32:43;;;;;;;7.47;5.20;;;10.50;70.10;;;12.36;51.94;98097.91;4973092;28;20038;-53
2024/03/22 05:35:09;;;;;;;6.33;4.77;;;10.50;70.30;;;12.32;51.50;98097.38;4973488;28;20047;-53
2024/03/22 05:37:36;;;;;;;5.90;4.60;;;10.40;69.60;;;12.32;51.58;98092.03;4973423;28;20038;-51
2024/03/22 05:40:06;;;;;;;6.07;4.43;;;10.50;68.90;;;12.31;51.40;98090.38;4957318;28;20043;-52
2024/03/22 05:42:33;;;;;;;5.03;4.33;;;10.50;68.00;;;12.30;51.19;98087.88;4972804;28;20038;-53
2024/03/22 05:45:00;;;;;;;5.43;4.17;;;10.50;67.90;;;12.30;51.07;98088.69;4973326;28;20043;-50
2024/03/22 05:47:26;;;;;;;10.20;3.33;;;10.60;67.70;;;12.31;51.09;98090.38;4972416;28;20058;-50
2024/03/22 05:49:53;;;;;;;7.80;4.00;;;10.70;67.10;;;12.33;51.01;98087.53;4973264;28;20038;-50
2024/03/22 05:52:20;;;;;;;4.93;3.40;;;10.70;66.10;;;12.34;50.60;98079.38;4972839;28;20039;-52
2024/03/22 05:54:46;;;;;;;3.90;3.13;;;10.70;65.40;;;12.37;50.40;98073.72;4973093;28;20314;-55
2024/03/22 05:57:13;;;;;;;5.13;3.47;;;10.80;64.70;;;12.40;50.55;98068.03;4973133;28;20038;-53
2024/03/22 05:59:40;;;;;;;5.07;3.60;;;10.90;64.50;;;12.42;50.14;98065.22;4972958;28;20050;-51
2024/03/22 06:02:07;;;;;;;3.33;2.40;;;10.90;64.20;;;12.46;49.80;98068.38;4972572;28;20039;-52
2024/03/22 06:04:34;;;;;;;3.23;2.93;;;11.00;63.60;;;12.45;49.93;98072.91;4972777;28;20043;-51
2024/03/22 06:07:03;;;;;;;4.27;3.00;;;11.00;62.90;;;12.48;49.73;98075.22;4972962;28;20051;-50
2024/03/22 06:09:45;;;;;;;3.67;2.70;;;11.10;62.90;;;12.53;49.47;98078.25;4971797;28;20050;-53
2024/03/22 06:12:13;;;;;;;4.90;3.23;;;11.10;62.60;;;12.58;49.43;98078.63;4979311;28;20054;-43
2024/03/22 06:14:42;;;;;;;3.70;2.77;;;11.10;63.40;;;12.65;49.34;98081.47;4972709;28;20525;-43
2024/03/22 06:17:09;;;;;;;3.63;2.70;;;11.10;62.00;;;12.71;49.03;98077.28;4972748;28;20047;-43
2024/03/22 06:19:37;;;;;;;5.33;2.50;;;11.10;62.00;;;12.75;48.93;98073.28;4972619;28;20047;-43
2024/03/22 06:22:04;;;;;;;3.67;3.10;;;11.20;61.80;;;12.76;48.82;98070.47;4955916;28;20062;-44
2024/03/22 06:24:31;;;;;;;3.97;2.63;;;11.20;62.00;;;12.81;48.96;98067.28;4972394;28;20054;-43
2024/03/22 06:26:58;;;;;;;3.50;2.90;;;11.30;62.10;;;12.85;48.98;98067.78;4972514;28;20361;-45
2024/03/22 06:29:25;;;;;;;3.60;3.10;;;11.30;62.00;;;12.81;48.64;98069.97;4972450;28;20494;-43
2024/03/22 06:31:52;;;;;;;6.03;3.23;;;11.30;61.90;;;12.83;49.00;98072.47;4971704;28;20051;-43
2024/03/22 06:34:19;;;;;;;4.43;3.50;;;11.30;62.50;;;12.82;49.05;98068.16;4972212;28;20102;-43
2024/03/22 06:36:47;;;;;;;5.83;5.20;;;11.30;62.90;;;12.83;49.39;98075.16;4972050;28;20054;-43
2024/03/22 06:39:14;;;;;;;7.80;6.07;;;11.30;64.00;;;12.81;49.67;98067.28;4972281;28;20042;-43
2024/03/22 06:41:41;;;;;;;8.63;5.57;;;11.20;65.00;;;12.79;49.91;98069.28;4971757;28;20310;-43
2024/03/22 06:44:11;;;;;;;9.73;6.27;;;11.20;65.30;;;12.78;50.28;98067.63;4972295;28;20057;-43
2024/03/22 06:46:39;;;;;;;6.93;5.17;;;11.10;65.70;;;12.76;50.14;98080.31;4956891;28;20054;-42
2024/03/22 06:49:06;;;;;;;6.20;4.93;;;11.10;65.50;;;12.67;49.77;98076.78;4955918;28;20521;-42
2024/03/22 06:51:32;;;;;;;6.53;4.83;;;11.00;65.10;;;12.58;49.88;98065.25;4971561;28;20050;-42
2024/03/22 06:53:59;;;;;;;5.93;4.63;;;10.80;65.40;;;12.54;50.13;98066.59;4972020;28;20041;-42
2024/03/22 06:56:26;;;;;;;6.03;4.43;;;10.80;65.60;;;12.49;50.30;98060.91;4972093;28;20410;-42
2024/03/22 06:58:52;;;;;;;7.47;4.57;;;10.80;65.90;;;12.46;50.30;98063.88;4971923;28;20055;-42
2024/03/22 07:01:20;;;;;;;5.90;4.40;;;10.80;66.50;;;12.49;50.41;98060.06;4971702;28;20039;-42
2024/03/22 07:03:47;;;;;;;6.83;4.00;;;10.80;66.50;;;12.53;50.59;98062.22;4971828;28;20050;-42
2024/03/22 07:06:15;;;;;;;5.77;4.47;;;10.80;66.50;;;12.56;50.72;98056.59;4968130;28;20517;-42
2024/03/22 07:08:41;;;;;;;5.90;4.70;;;10.90;66.50;;;12.60;50.59;98059.72;4971929;28;20046;-41
2024/03/22 07:11:08;;;;;;;5.80;3.83;;;11.00;66.40;;;12.64;50.82;98054.91;4971784;28;20046;-42
2024/03/22 07:13:35;;;;;;;5.87;4.20;;;11.00;66.70;;;12.70;50.70;98048.94;4971758;28;20046;-43
2024/03/22 07:16:03;;;;;;;6.13;3.77;;;11.10;66.80;;;12.76;50.92;98042.91;4971997;28;20523;-43
2024/03/22 07:18:29;;;;;;;7.57;3.60;;;11.20;66.50;;;12.83;50.28;98040.41;4971419;28;20042;-44
2024/03/22 07:20:57;;;;;;;7.03;3.53;;;11.30;65.80;;;12.90;50.23;98039.59;4971091;28;20109;-43
2024/03/22 07:23:24;;;;;;;3.88;2.88;;;11.30;65.50;;;12.97;49.98;98035.25;4954677;28;20038;-43
2024/03/22 07:25:51;;;;;;;3.10;2.43;;;11.50;64.70;;;13.06;49.84;98035.25;4971292;28;20521;-45
2024/03/22 07:28:17;;;;;;;3.93;2.77;;;11.50;64.40;;;13.10;50.07;98029.38;4971381;28;20502;-42
2024/03/22 07:30:44;;;;;;;4.23;2.93;;;11.60;64.80;;;13.17;50.00;98025.03;4970709;28;20035;-43
2024/03/22 07:33:16;;;;;;;5.23;3.30;;;11.70;65.00;;;13.26;50.13;98028.56;4971269;28;20042;-43
2024/03/22 07:35:44;;;;;;;4.80;3.93;;;11.80;65.00;;;13.30;50.29;98024.56;4971305;28;20050;-47
2024/03/22 07:38:10;;;;;;;6.20;3.33;;;11.90;64.90;;;13.37;50.25;98027.38;4971407;28;20043;-42
2024/03/22 07:40:37;;;;;;;5.00;3.23;;;12.00;65.00;;;13.42;50.29;98022.38;4970821;28;20047;-42
2024/03/22 07:43:06;;;;;;;5.43;3.77;;;12.00;64.90;;;13.48;50.23;98015.50;4970900;28;20202;-42
2024/03/22 07:45:34;;;;;;;5.78;3.53;;;12.10;64.80;;;13.52;50.27;98015.00;4971297;28;20065;-41
2024/03/22 07:48:01;;;;;;;6.57;3.67;;;12.20;64.60;;;13.57;50.10;98017.13;4971140;28;20039;-42
2024/03/22 07:50:28;;;;;;;5.37;4.23;;;12.30;64.50;;;13.63;50.19;98015.63;4954880;28;20070;-42
2024/03/22 07:52:55;;;;;;;6.13;4.20;;;12.30;64.40;;;13.68;50.36;98018.63;4970607;28;20050;-42
2024/03/22 07:55:23;;;;;;;5.73;4.30;;;12.40;64.40;;;13.73;50.40;98018.97;4971117;28;20053;-43
2024/03/22 07:57:49;;;;;;;7.00;5.40;;;12.40;64.50;;;13.78;50.52;98036.16;4970981;28;20059;-43
2024/03/22 08:00:16;;;;;;;7.60;4.88;;;12.50;64.50;;;13.83;50.57;98027.63;4970991;28;20449;-46
2024/03/22 08:02:43;;;;;;;6.80;5.28;;;12.60;64.80;;;13.89;50.91;98032.28;4970385;28;20051;-42
2024/03/22 08:05:09;;;;;;;6.60;4.68;;;12.60;65.10;;;13.95;50.81;98028.91;4970919;28;20050;-43
2024/03/22 09:44:50;;;;;;;7.95;5.72;;;14.60;65.20;;;15.82;50.90;97953.56;4973293;23;20050;-42
2024/03/22 09:47:20;;;;;;;10.02;6.53;;;14.70;64.80;;;15.92;50.55;97940.69;4972896;28;20045;-42
2024/03/22 09:49:48;;;;;;;10.23;6.80;;;14.80;64.20;;;16.04;50.57;97941.88;4973099;28;20432;-43
2024/03/22 09:52:19;;;;;;;7.15;5.63;;;14.90;64.30;;;16.14;49.83;97936.19;4972880;28;20417;-42
2024/03/22 09:54:46;;;;;;;7.93;5.70;;;15.00;62.90;;;16.23;49.26;97932.38;4973183;28;20052;-43
2024/03/22 09:57:17;;;;;;;13.23;6.63;;;15.10;61.80;;;16.27;48.92;97924.78;4973260;28;20516;-42
2024/03/22 09:59:45;;;;;;;10.52;6.07;;;15.10;60.00;;;16.29;48.99;97928.91;4973033;28;20053;-43
2024/03/22 10:02:13;;;;;;;8.05;5.95;;;15.10;61.20;;;16.31;48.35;97929.56;4956622;28;20039;-43
2024/03/22 10:04:43;;;;;;;7.78;5.40;;;15.10;60.70;;;16.38;47.90;97920.72;4972846;28;20043;-44
2024/03/22 10:07:10;;;;;;;7.13;5.15;;;15.20;59.50;;;16.39;47.64;97920.53;4961154;28;20038;-44
2024/03/22 10:09:37;;;;;;;7.13;5.55;;;15.10;59.10;;;16.41;47.48;97914.97;4972902;28;20046;-42
2024/03/22 10:12:04;;;;;;;9.73;6.25;;;15.20;59.20;;;16.46;47.34;97907.16;4956408;28;20050;-42
2024/03/22 10:14:32;;;;;;;7.57;5.18;;;15.20;59.20;;;16.50;47.18;97903.91;4971353;28;20039;-42
2024/03/22 10:16:58;;;;;;;5.65;3.88;;;15.30;58.90;;;16.53;46.10;97898.13;4970650;28;20053;-42
2024/03/22 10:19:25;;;;;;;6.68;4.30;;;15.30;56.00;;;16.51;45.44;97902.88;4966976;28;20038;-39
2024/03/22 10:22:07;;;;;;;7.88;4.45;;;15.40;53.30;;;16.49;44.69;97896.88;4972229;28;20069;-49
2024/03/22 10:24:34;;;;;;;7.70;4.15;;;15.40;53.00;;;16.52;44.63;97884.91;4956755;28;20422;-53
2024/03/22 10:27:01;;;;;;;6.25;3.75;;;15.40;54.60;;;16.56;44.49;97883.50;4972054;28;20046;-53
2024/03/22 10:29:28;;;;;;;5.07;3.70;;;15.50;54.40;;;16.63;44.19;97878.16;4972836;28;20046;-52
2024/03/22 10:31:56;;;;;;;5.75;4.50;;;15.60;54.50;;;16.73;44.12;97870.63;4956000;28;20513;-52
2024/03/22 10:34:24;;;;;;;5.82;4.65;;;15.70;52.70;;;16.77;43.52;97868.34;4972164;28;20410;-52
2024/03/22 10:36:52;;;;;;;5.72;3.60;;;15.70;52.10;;;16.83;43.70;97864.94;4970371;28;20054;-50
2024/03/22 10:39:19;;;;;;;5.82;4.05;;;15.80;53.10;;;16.89;43.27;97859.59;4972472;28;20043;-51
2024/03/22 10:41:47;;;;;;;5.88;4.30;;;15.80;52.60;;;17.02;43.14;97858.00;4971726;28;20066;-54
2024/03/22 10:44:15;;;;;;;9.50;4.93;;;15.90;52.60;;;17.15;43.22;97854.59;4971417;28;20405;-52
2024/03/22 10:46:48;;;;;;;6.35;3.42;;;16.00;52.50;;;17.23;42.54;97852.53;4972492;28;20042;-51
2024/03/22 10:49:22;;;;;;;4.03;2.53;;;16.20;50.40;;;17.20;39.65;97850.28;4964849;28;20039;-53
2024/03/22 10:51:58;;;;;;;4.25;2.53;;;16.30;45.20;;;17.33;40.35;97846.81;4971649;28;20494;-52
2024/03/22 12:16:53;;;;;;;31.23;21.88;;;17.80;45.50;;;19.12;38.68;97701.66;5905748;23;20212;-52
2024/03/22 12:19:20;;;;;;;7.82;6.20;;;17.90;46.60;;;19.15;38.67;97695.81;4976862;28;20039;-51
2024/03/22 12:21:46;;;;;;;8.13;3.78;;;17.90;46.90;;;19.20;38.78;97698.69;4976923;28;20042;-52
2024/03/22 12:24:13;;;;;;;5.93;3.47;;;17.90;46.70;;;19.19;38.00;97683.53;4977201;28;20038;-53
2024/03/22 12:26:39;;;;;;;5.00;3.53;;;17.90;44.90;;;19.24;38.19;97678.31;4977171;28;20077;-53
2024/03/22 12:29:07;;;;;;;7.38;3.78;;;17.90;45.70;;;19.34;38.50;97678.69;4977216;28;20054;-54
2024/03/22 12:31:33;;;;;;;4.85;3.40;;;18.10;46.00;;;19.45;38.51;97677.16;4976725;28;20081;-51
2024/03/22 12:34:00;;;;;;;39.45;5.95;;;18.30;46.40;;;19.51;38.31;97670.06;4961073;28;20050;-56
2024/03/22 12:36:27;;;;;;;16.63;5.28;;;18.40;46.40;;;19.56;39.00;97660.28;4977125;28;20031;-55
2024/03/22 12:38:53;;;;;;;5.13;3.65;;;18.40;46.70;;;19.60;39.11;97663.34;4977127;28;20047;-52
2024/03/22 12:41:20;;;;;;;4.30;3.33;;;18.50;47.20;;;19.60;37.31;97660.66;4976782;28;20043;-53
2024/03/22 12:43:47;;;;;;;3.50;2.65;;;18.40;43.60;;;19.63;37.44;97647.53;4961090;28;20046;-51
2024/03/22 12:46:13;;;;;;;5.00;2.67;;;18.40;44.10;;;19.71;36.92;97651.03;4976970;28;20046;-59
2024/03/22 12:48:40;;;;;;;3.97;3.13;;;18.50;43.70;;;19.72;36.34;97652.72;4977115;28;20053;-57
2024/03/22 12:51:07;;;;;;;4.05;2.70;;;18.50;42.50;;;19.75;36.26;97649.56;4976438;28;20143;-58
2024/03/22 12:53:34;;;;;;;6.63;3.80;;;18.60;42.80;;;19.73;36.32;97638.97;4976973;28;20157;-56
2024/03/22 12:56:01;;;;;;;12.77;8.40;;;18.60;42.80;;;19.77;36.42;97637.50;4976899;28;20050;-53
2024/03/22 12:58:29;;;;;;;6.38;4.43;;;18.60;42.70;;;19.83;36.66;97633.09;4976881;28;20039;-52
2024/03/22 13:00:59;;;;;;;5.55;2.90;;;18.60;43.10;;;19.88;36.55;97635.97;4976530;28;20047;-51
2024/03/22 13:03:27;;;;;;;4.85;3.20;;;18.70;43.10;;;19.93;36.84;97628.03;4976495;28;20058;-53
2024/03/22 13:05:54;;;;;;;4.93;3.42;;;18.70;43.20;;;19.93;36.39;97629.88;4976827;28;20051;-59
2024/03/22 13:08:20;;;;;;;4.30;3.35;;;18.80;42.70;;;19.86;36.09;97629.94;4974631;28;20050;-54
2024/03/22 13:10:48;;;;;;;3.95;3.20;;;18.60;42.60;;;19.89;36.41;97625.97;4976523;28;20497;-53
2024/03/22 13:13:16;;;;;;;5.93;2.97;;;18.60;42.70;;;19.97;37.01;97612.19;4976742;28;20038;-53
2024/03/22 13:15:43;;;;;;;7.05;3.67;;;18.80;43.90;;;19.99;36.13;97607.41;4976873;28;20047;-50
2024/03/22 13:18:10;;;;;;;6.53;3.42;;;18.80;42.50;;;20.02;35.98;97606.94;4976622;28;20034;-55